sensor_id;sensor_type;location;lat;lon;timestamp;pressure;altitude;pressure_sealevel;temperature
74750;BMP280;63269;53.330;-6.288;2022-11-20T00:00:52;100285.50;;;20.01
74750;BMP280;63269;53.330;-6.288;2022-11-20T00:03:18;100294.69;;;20.00
74750;BMP280;63269;53.330;-6.288;2022-11-20T00:05:43;100300.03;;;20.00
74750;BMP280;63269;53.330;-6.288;2022-11-20T00:08:09;100304.56;;;19.99
74750;BMP280;63269;53.330;-6.288;2022-11-20T00:10:39;100304.56;;;19.99
74750;BMP280;63269;53.330;-6.288;2022-11-20T00:13:05;100302.19;;;19.92
74750;BMP280;63269;53.330;-6.288;2022-11-20T00:15:31;100302.19;;;19.92
74750;BMP280;63269;53.330;-6.288;2022-11-20T00:17:56;100308.56;;;19.94
74750;BMP280;63269;53.330;-6.288;2022-11-20T00:20:22;100308.56;;;19.94
74750;BMP280;63269;53.330;-6.288;2022-11-20T00:22:47;100305.59;;;19.92
74750;BMP280;63269;53.330;-6.288;2022-11-20T00:25:13;100305.59;;;19.92
74750;BMP280;63269;53.330;-6.288;2022-11-20T00:27:38;100311.34;;;19.91
74750;BMP280;63269;53.330;-6.288;2022-11-20T00:30:04;100311.34;;;19.91
74750;BMP280;63269;53.330;-6.288;2022-11-20T00:32:30;100316.66;;;19.91
74750;BMP280;63269;53.330;-6.288;2022-11-20T00:34:56;100312.53;;;19.90
74750;BMP280;63269;53.330;-6.288;2022-11-20T00:37:21;100312.53;;;19.90
74750;BMP280;63269;53.330;-6.288;2022-11-20T00:39:46;100315.63;;;19.88
74750;BMP280;63269;53.330;-6.288;2022-11-20T00:42:12;100317.25;;;19.86
74750;BMP280;63269;53.330;-6.288;2022-11-20T00:44:37;100319.47;;;19.87
74750;BMP280;63269;53.330;-6.288;2022-11-20T00:47:03;100319.47;;;19.87
74750;BMP280;63269;53.330;-6.288;2022-11-20T00:49:28;100317.97;;;19.86
74750;BMP280;63269;53.330;-6.288;2022-11-20T00:51:54;100329.78;;;19.85
74750;BMP280;63269;53.330;-6.288;2022-11-20T00:54:19;100330.97;;;19.84
74750;BMP280;63269;53.330;-6.288;2022-11-20T00:56:44;100326.09;;;19.83
74750;BMP280;63269;53.330;-6.288;2022-11-20T00:59:10;100325.34;;;19.82
74750;BMP280;63269;53.330;-6.288;2022-11-20T01:01:36;100332.59;;;19.82
74750;BMP280;63269;53.330;-6.288;2022-11-20T01:04:02;100340.56;;;19.82
74750;BMP280;63269;53.330;-6.288;2022-11-20T01:06:36;100340.56;;;19.82
74750;BMP280;63269;53.330;-6.288;2022-11-20T01:09:11;100335.69;;;19.80
74750;BMP280;63269;53.330;-6.288;2022-11-20T01:11:39;100341.00;;;19.80
74750;BMP280;63269;53.330;-6.288;2022-11-20T01:14:07;100335.69;;;19.80
74750;BMP280;63269;53.330;-6.288;2022-11-20T01:16:41;100335.69;;;19.80
74750;BMP280;63269;53.330;-6.288;2022-11-20T01:19:10;100338.03;;;19.78
74750;BMP280;63269;53.330;-6.288;2022-11-20T01:21:38;100338.03;;;19.78
74750;BMP280;63269;53.330;-6.288;2022-11-20T01:24:06;100324.41;;;19.76
74750;BMP280;63269;53.330;-6.288;2022-11-20T01:26:34;100319.81;;;19.76
74750;BMP280;63269;53.330;-6.288;2022-11-20T01:29:01;100319.81;;;19.76
74750;BMP280;63269;53.330;-6.288;2022-11-20T01:31:33;100332.09;;;19.74
74750;BMP280;63269;53.330;-6.288;2022-11-20T01:34:03;100329.41;;;19.74
74750;BMP280;63269;53.330;-6.288;2022-11-20T01:36:31;100337.09;;;19.72
74750;BMP280;63269;53.330;-6.288;2022-11-20T01:38:59;100335.16;;;19.72
74750;BMP280;63269;53.330;-6.288;2022-11-20T01:41:27;100333.69;;;19.71
74750;BMP280;63269;53.330;-6.288;2022-11-20T01:44:13;100331.50;;;19.70
74750;BMP280;63269;53.330;-6.288;2022-11-20T01:46:43;100331.50;;;19.70
74750;BMP280;63269;53.330;-6.288;2022-11-20T01:51:51;100341.38;;;19.69
74750;BMP280;63269;53.330;-6.288;2022-11-20T01:54:23;100343.31;;;19.69
74750;BMP280;63269;53.330;-6.288;2022-11-20T01:56:51;100341.81;;;19.68
74750;BMP280;63269;53.330;-6.288;2022-11-20T01:59:20;100348.28;;;19.67
74750;BMP280;63269;53.330;-6.288;2022-11-20T02:01:47;100358.19;;;19.66
74750;BMP280;63269;53.330;-6.288;2022-11-20T02:04:13;100349.47;;;19.66
74750;BMP280;63269;53.330;-6.288;2022-11-20T02:07:03;100346.06;;;19.65
74750;BMP280;63269;53.330;-6.288;2022-11-20T02:09:30;100349.16;;;19.64
74750;BMP280;63269;53.330;-6.288;2022-11-20T02:11:56;100351.09;;;19.63
74750;BMP280;63269;53.330;-6.288;2022-11-20T02:14:22;100352.59;;;19.64
74750;BMP280;63269;53.330;-6.288;2022-11-20T02:16:49;100354.47;;;19.64
74750;BMP280;63269;53.330;-6.288;2022-11-20T02:19:30;100351.50;;;19.62
74750;BMP280;63269;53.330;-6.288;2022-11-20T02:22:21;100351.50;;;19.62
74750;BMP280;63269;53.330;-6.288;2022-11-20T02:24:48;100351.50;;;19.62
74750;BMP280;63269;53.330;-6.288;2022-11-20T02:27:15;100359.59;;;19.58
74750;BMP280;63269;53.330;-6.288;2022-11-20T02:29:49;100367.59;;;19.58
74750;BMP280;63269;53.330;-6.288;2022-11-20T02:32:20;100366.44;;;19.59
74750;BMP280;63269;53.330;-6.288;2022-11-20T02:34:46;100358.97;;;19.54
74750;BMP280;63269;53.330;-6.288;2022-11-20T02:37:12;100358.97;;;19.54
74750;BMP280;63269;53.330;-6.288;2022-11-20T02:39:37;100348.69;;;19.56
74750;BMP280;63269;53.330;-6.288;2022-11-20T02:42:03;100351.75;;;19.54
74750;BMP280;63269;53.330;-6.288;2022-11-20T02:44:28;100357.81;;;19.55
74750;BMP280;63269;53.330;-6.288;2022-11-20T02:46:57;100349.84;;;19.55
74750;BMP280;63269;53.330;-6.288;2022-11-20T02:49:22;100348.69;;;19.56
74750;BMP280;63269;53.330;-6.288;2022-11-20T02:51:48;100343.78;;;19.54
74750;BMP280;63269;53.330;-6.288;2022-11-20T02:54:13;100343.78;;;19.54
74750;BMP280;63269;53.330;-6.288;2022-11-20T02:56:39;100346.88;;;19.53
74750;BMP280;63269;53.330;-6.288;2022-11-20T02:59:04;100355.59;;;19.53
74750;BMP280;63269;53.330;-6.288;2022-11-20T03:01:29;100353.66;;;19.54
74750;BMP280;63269;53.330;-6.288;2022-11-20T03:03:55;100353.66;;;19.54
74750;BMP280;63269;53.330;-6.288;2022-11-20T03:06:21;100353.34;;;19.52
74750;BMP280;63269;53.330;-6.288;2022-11-20T03:08:46;100346.09;;;19.52
74750;BMP280;63269;53.330;-6.288;2022-11-20T03:11:12;100349.97;;;19.51
74750;BMP280;63269;53.330;-6.288;2022-11-20T03:13:37;100348.47;;;19.50
74750;BMP280;63269;53.330;-6.288;2022-11-20T03:16:14;100348.47;;;19.50
74750;BMP280;63269;53.330;-6.288;2022-11-20T03:18:41;100347.72;;;19.50
74750;BMP280;63269;53.330;-6.288;2022-11-20T03:21:08;100350.81;;;19.48
74750;BMP280;63269;53.330;-6.288;2022-11-20T03:23:35;100350.81;;;19.48
74750;BMP280;63269;53.330;-6.288;2022-11-20T03:26:20;100348.91;;;19.49
74750;BMP280;63269;53.330;-6.288;2022-11-20T03:28:48;100339.44;;;19.48
74750;BMP280;63269;53.330;-6.288;2022-11-20T03:31:15;100339.44;;;19.48
74750;BMP280;63269;53.330;-6.288;2022-11-20T03:33:42;100318.59;;;19.46
74750;BMP280;63269;53.330;-6.288;2022-11-20T03:36:11;100315.19;;;19.46
74750;BMP280;63269;53.330;-6.288;2022-11-20T03:38:36;100317.88;;;19.46
74750;BMP280;63269;53.330;-6.288;2022-11-20T03:41:04;100317.88;;;19.46
74750;BMP280;63269;53.330;-6.288;2022-11-20T03:43:30;100315.19;;;19.46
74750;BMP280;63269;53.330;-6.288;2022-11-20T03:45:56;100315.19;;;19.46
74750;BMP280;63269;53.330;-6.288;2022-11-20T03:48:21;100311.47;;;19.43
74750;BMP280;63269;53.330;-6.288;2022-11-20T03:50:47;100311.47;;;19.43
74750;BMP280;63269;53.330;-6.288;2022-11-20T03:53:14;100299.38;;;19.42
74750;BMP280;63269;53.330;-6.288;2022-11-20T03:55:39;100299.38;;;19.42
74750;BMP280;63269;53.330;-6.288;2022-11-20T03:58:05;100318.41;;;19.41
74750;BMP280;63269;53.330;-6.288;2022-11-20T04:00:30;100314.69;;;19.38
74750;BMP280;63269;53.330;-6.288;2022-11-20T04:03:00;100314.69;;;19.38
74750;BMP280;63269;53.330;-6.288;2022-11-20T04:05:26;100326.38;;;19.41
74750;BMP280;63269;53.330;-6.288;2022-11-20T04:07:51;100320.31;;;19.40
74750;BMP280;63269;53.330;-6.288;2022-11-20T04:10:17;100319.56;;;19.40
74750;BMP280;63269;53.330;-6.288;2022-11-20T04:12:42;100326.81;;;19.39
74750;BMP280;63269;53.330;-6.288;2022-11-20T04:15:08;100326.81;;;19.39
74750;BMP280;63269;53.330;-6.288;2022-11-20T04:17:34;100307.44;;;19.38
74750;BMP280;63269;53.330;-6.288;2022-11-20T04:19:59;100304.06;;;19.38
74750;BMP280;63269;53.330;-6.288;2022-11-20T04:22:25;100304.06;;;19.38
74750;BMP280;63269;53.330;-6.288;2022-11-20T04:24:50;100312.47;;;19.36
74750;BMP280;63269;53.330;-6.288;2022-11-20T04:27:16;100317.03;;;19.36
74750;BMP280;63269;53.330;-6.288;2022-11-20T04:29:41;100325.03;;;19.36
74750;BMP280;63269;53.330;-6.288;2022-11-20T04:32:06;100321.59;;;19.35
74750;BMP280;63269;53.330;-6.288;2022-11-20T04:34:32;100323.53;;;19.35
74750;BMP280;63269;53.330;-6.288;2022-11-20T04:36:57;100331.50;;;19.35
74750;BMP280;63269;53.330;-6.288;2022-11-20T04:39:23;100339.47;;;19.35
74750;BMP280;63269;53.330;-6.288;2022-11-20T04:41:48;100340.63;;;19.34
74750;BMP280;63269;53.330;-6.288;2022-11-20T04:44:33;100340.63;;;19.34
74750;BMP280;63269;53.330;-6.288;2022-11-20T04:46:59;100338.13;;;19.30
74750;BMP280;63269;53.330;-6.288;2022-11-20T04:49:24;100346.41;;;19.32
74750;BMP280;63269;53.330;-6.288;2022-11-20T04:51:53;100351.72;;;19.32
74750;BMP280;63269;53.330;-6.288;2022-11-20T04:54:18;100361.63;;;19.32
74750;BMP280;63269;53.330;-6.288;2022-11-20T04:56:47;100360.75;;;19.35
74750;BMP280;63269;53.330;-6.288;2022-11-20T04:59:13;100360.75;;;19.35
74750;BMP280;63269;53.330;-6.288;2022-11-20T05:01:38;100360.31;;;19.36
74750;BMP280;63269;53.330;-6.288;2022-11-20T05:04:03;100352.44;;;19.46
74750;BMP280;63269;53.330;-6.288;2022-11-20T05:06:29;100354.22;;;19.49
74750;BMP280;63269;53.330;-6.288;2022-11-20T05:08:54;100359.13;;;19.50
74750;BMP280;63269;53.330;-6.288;2022-11-20T05:11:20;100359.13;;;19.50
74750;BMP280;63269;53.330;-6.288;2022-11-20T05:13:46;100368.78;;;19.57
74750;BMP280;63269;53.330;-6.288;2022-11-20T05:16:17;100368.78;;;19.57
74750;BMP280;63269;53.330;-6.288;2022-11-20T05:18:43;100374.41;;;19.59
74750;BMP280;63269;53.330;-6.288;2022-11-20T05:21:10;100372.38;;;19.63
74750;BMP280;63269;53.330;-6.288;2022-11-20T05:23:35;100386.00;;;19.65
74750;BMP280;63269;53.330;-6.288;2022-11-20T05:26:02;100379.47;;;19.66
74750;BMP280;63269;53.330;-6.288;2022-11-20T05:28:29;100377.13;;;19.68
74750;BMP280;63269;53.330;-6.288;2022-11-20T05:30:54;100377.13;;;19.68
74750;BMP280;63269;53.330;-6.288;2022-11-20T05:33:20;100375.97;;;19.69
74750;BMP280;63269;53.330;-6.288;2022-11-20T05:35:46;100378.94;;;19.71
74750;BMP280;63269;53.330;-6.288;2022-11-20T05:38:11;100370.81;;;19.75
74750;BMP280;63269;53.330;-6.288;2022-11-20T05:40:37;100361.34;;;19.74
74750;BMP280;63269;53.330;-6.288;2022-11-20T05:43:02;100366.09;;;19.79
74750;BMP280;63269;53.330;-6.288;2022-11-20T05:45:28;100369.13;;;19.81
74750;BMP280;63269;53.330;-6.288;2022-11-20T05:47:53;100369.13;;;19.81
74750;BMP280;63269;53.330;-6.288;2022-11-20T05:50:22;100365.25;;;19.82
74750;BMP280;63269;53.330;-6.288;2022-11-20T05:52:47;100374.63;;;19.87
74750;BMP280;63269;53.330;-6.288;2022-11-20T05:55:13;100374.63;;;19.87
74750;BMP280;63269;53.330;-6.288;2022-11-20T05:57:38;100372.25;;;19.89
74750;BMP280;63269;53.330;-6.288;2022-11-20T06:00:04;100372.25;;;19.89
74750;BMP280;63269;53.330;-6.288;2022-11-20T06:02:29;100372.97;;;19.89
74750;BMP280;63269;53.330;-6.288;2022-11-20T06:04:55;100368.72;;;19.92
74750;BMP280;63269;53.330;-6.288;2022-11-20T06:07:20;100364.16;;;19.92
74750;BMP280;63269;53.330;-6.288;2022-11-20T06:09:46;100351.88;;;19.95
74750;BMP280;63269;53.330;-6.288;2022-11-20T06:12:11;100351.88;;;19.95
74750;BMP280;63269;53.330;-6.288;2022-11-20T06:14:36;100345.81;;;19.94
74750;BMP280;63269;53.330;-6.288;2022-11-20T06:17:02;100348.38;;;19.98
74750;BMP280;63269;53.330;-6.288;2022-11-20T06:19:27;100334.63;;;20.00
74750;BMP280;63269;53.330;-6.288;2022-11-20T06:21:52;100331.97;;;20.00
74750;BMP280;63269;53.330;-6.288;2022-11-20T06:24:18;100325.44;;;20.01
74750;BMP280;63269;53.330;-6.288;2022-11-20T06:26:44;100325.44;;;20.01
74750;BMP280;63269;53.330;-6.288;2022-11-20T06:29:09;100325.31;;;20.04
74750;BMP280;63269;53.330;-6.288;2022-11-20T06:31:35;100325.31;;;20.04
74750;BMP280;63269;53.330;-6.288;2022-11-20T06:34:04;100325.31;;;20.04
74750;BMP280;63269;53.330;-6.288;2022-11-20T06:36:30;100316.56;;;20.04
74750;BMP280;63269;53.330;-6.288;2022-11-20T06:38:56;100318.22;;;20.10
74750;BMP280;63269;53.330;-6.288;2022-11-20T06:41:21;100325.78;;;20.12
74750;BMP280;63269;53.330;-6.288;2022-11-20T06:43:48;100326.13;;;20.14
74750;BMP280;63269;53.330;-6.288;2022-11-20T06:46:14;100322.25;;;20.15
74750;BMP280;63269;53.330;-6.288;2022-11-20T06:48:42;100323.72;;;20.16
74750;BMP280;63269;53.330;-6.288;2022-11-20T06:51:09;100325.97;;;20.17
74750;BMP280;63269;53.330;-6.288;2022-11-20T06:53:35;100327.16;;;20.16
74750;BMP280;63269;53.330;-6.288;2022-11-20T06:56:00;100325.09;;;20.21
74750;BMP280;63269;53.330;-6.288;2022-11-20T06:58:27;100325.09;;;20.21
74750;BMP280;63269;53.330;-6.288;2022-11-20T07:00:53;100315.47;;;20.23
74750;BMP280;63269;53.330;-6.288;2022-11-20T07:03:19;100328.78;;;20.23
74750;BMP280;63269;53.330;-6.288;2022-11-20T07:05:45;100328.78;;;20.23
74750;BMP280;63269;53.330;-6.288;2022-11-20T07:08:11;100327.94;;;20.26
74750;BMP280;63269;53.330;-6.288;2022-11-20T07:10:37;100327.94;;;20.26
74750;BMP280;63269;53.330;-6.288;2022-11-20T07:13:03;100310.78;;;20.27
74750;BMP280;63269;53.330;-6.288;2022-11-20T07:15:29;100311.09;;;20.29
74750;BMP280;63269;53.330;-6.288;2022-11-20T07:17:54;100311.09;;;20.29
74750;BMP280;63269;53.330;-6.288;2022-11-20T07:20:20;100311.81;;;20.30
74750;BMP280;63269;53.330;-6.288;2022-11-20T07:22:45;100310.94;;;20.33
74750;BMP280;63269;53.330;-6.288;2022-11-20T07:25:10;100307.84;;;20.34
74750;BMP280;63269;53.330;-6.288;2022-11-20T07:27:36;100307.84;;;20.34
74750;BMP280;63269;53.330;-6.288;2022-11-20T07:30:03;100295.72;;;20.33
74750;BMP280;63269;53.330;-6.288;2022-11-20T07:32:29;100301.34;;;20.35
74750;BMP280;63269;53.330;-6.288;2022-11-20T07:34:54;100314.19;;;20.37
74750;BMP280;63269;53.330;-6.288;2022-11-20T07:37:20;100314.19;;;20.37
74750;BMP280;63269;53.330;-6.288;2022-11-20T07:39:45;100323.25;;;20.40
74750;BMP280;63269;53.330;-6.288;2022-11-20T07:42:12;100315.28;;;20.40
74750;BMP280;63269;53.330;-6.288;2022-11-20T07:44:38;100318.22;;;20.42
74750;BMP280;63269;53.330;-6.288;2022-11-20T07:47:03;100319.72;;;20.43
74750;BMP280;63269;53.330;-6.288;2022-11-20T07:49:29;100317.03;;;20.43
74750;BMP280;63269;53.330;-6.288;2022-11-20T07:51:55;100309.78;;;20.43
74750;BMP280;63269;53.330;-6.288;2022-11-20T07:54:20;100307.13;;;20.43
74750;BMP280;63269;53.330;-6.288;2022-11-20T07:56:47;100307.13;;;20.43
74750;BMP280;63269;53.330;-6.288;2022-11-20T07:59:13;100300.63;;;20.44
74750;BMP280;63269;53.330;-6.288;2022-11-20T08:01:39;100286.13;;;20.45
74750;BMP280;63269;53.330;-6.288;2022-11-20T08:04:05;100303.16;;;20.48
74750;BMP280;63269;53.330;-6.288;2022-11-20T08:06:31;100295.91;;;20.48
74750;BMP280;63269;53.330;-6.288;2022-11-20T08:08:56;100300.03;;;20.49
74750;BMP280;63269;53.330;-6.288;2022-11-20T08:11:22;100297.38;;;20.49
74750;BMP280;63269;53.330;-6.288;2022-11-20T08:14:06;100293.97;;;20.49
74750;BMP280;63269;53.330;-6.288;2022-11-20T08:16:45;100299.16;;;20.52
74750;BMP280;63269;53.330;-6.288;2022-11-20T08:19:15;100299.16;;;20.52
74750;BMP280;63269;53.330;-6.288;2022-11-20T08:21:41;100290.84;;;20.50
74750;BMP280;63269;53.330;-6.288;2022-11-20T08:24:09;100283.19;;;20.52
74750;BMP280;63269;53.330;-6.288;2022-11-20T08:26:36;100283.91;;;20.53
74750;BMP280;63269;53.330;-6.288;2022-11-20T08:29:02;100285.69;;;20.56
74750;BMP280;63269;53.330;-6.288;2022-11-20T08:31:28;100285.69;;;20.56
74750;BMP280;63269;53.330;-6.288;2022-11-20T08:33:54;100274.59;;;20.57
74750;BMP280;63269;53.330;-6.288;2022-11-20T08:36:21;100274.59;;;20.57
74750;BMP280;63269;53.330;-6.288;2022-11-20T08:38:47;100277.25;;;20.57
74750;BMP280;63269;53.330;-6.288;2022-11-20T08:41:13;100287.78;;;20.61
74750;BMP280;63269;53.330;-6.288;2022-11-20T08:43:58;100287.78;;;20.61
74750;BMP280;63269;53.330;-6.288;2022-11-20T08:46:24;100287.78;;;20.61
74750;BMP280;63269;53.330;-6.288;2022-11-20T08:48:50;100295.78;;;20.61
74750;BMP280;63269;53.330;-6.288;2022-11-20T08:51:16;100303.31;;;20.63
74750;BMP280;63269;53.330;-6.288;2022-11-20T08:53:42;100300.22;;;20.64
74750;BMP280;63269;53.330;-6.288;2022-11-20T08:56:07;100300.22;;;20.64
74750;BMP280;63269;53.330;-6.288;2022-11-20T08:58:34;100291.78;;;20.66
74750;BMP280;63269;53.330;-6.288;2022-11-20T09:01:00;100287.19;;;20.66
74750;BMP280;63269;53.330;-6.288;2022-11-20T09:03:26;100287.19;;;20.66
74750;BMP280;63269;53.330;-6.288;2022-11-20T09:05:59;100273.44;;;20.68
74750;BMP280;63269;53.330;-6.288;2022-11-20T09:08:25;100281.44;;;20.68
74750;BMP280;63269;53.330;-6.288;2022-11-20T09:10:52;100272.28;;;20.69
74750;BMP280;63269;53.330;-6.288;2022-11-20T09:13:17;100261.63;;;20.69
74750;BMP280;63269;53.330;-6.288;2022-11-20T09:15:43;100261.63;;;20.69
74750;BMP280;63269;53.330;-6.288;2022-11-20T09:18:08;100271.22;;;20.66
74750;BMP280;63269;53.330;-6.288;2022-11-20T09:20:34;100262.47;;;20.66
74750;BMP280;63269;53.330;-6.288;2022-11-20T09:22:59;100256.13;;;20.63
74750;BMP280;63269;53.330;-6.288;2022-11-20T09:25:25;100242.03;;;20.63
74750;BMP280;63269;53.330;-6.288;2022-11-20T09:27:59;100233.31;;;20.62
74750;BMP280;63269;53.330;-6.288;2022-11-20T09:30:26;100222.03;;;20.58
74750;BMP280;63269;53.330;-6.288;2022-11-20T09:32:51;100220.59;;;20.57
74750;BMP280;63269;53.330;-6.288;2022-11-20T09:35:17;100220.59;;;20.57
74750;BMP280;63269;53.330;-6.288;2022-11-20T09:37:43;100218.06;;;20.53
74750;BMP280;63269;53.330;-6.288;2022-11-20T09:40:20;100210.94;;;20.50
74750;BMP280;63269;53.330;-6.288;2022-11-20T09:45:52;100199.69;;;20.46
74750;BMP280;63269;53.330;-6.288;2022-11-20T09:48:55;100209.00;;;20.42
74750;BMP280;63269;53.330;-6.288;2022-11-20T09:54:20;100217.28;;;20.34
74750;BMP280;63269;53.330;-6.288;2022-11-20T09:56:54;100217.28;;;20.34
74750;BMP280;63269;53.330;-6.288;2022-11-20T09:59:42;100218.47;;;20.33
74750;BMP280;63269;53.330;-6.288;2022-11-20T10:05:04;100227.03;;;20.28
74750;BMP280;63269;53.330;-6.288;2022-11-20T10:10:03;100213.41;;;20.26
74750;BMP280;63269;53.330;-6.288;2022-11-20T10:12:46;100223.63;;;20.28
74750;BMP280;63269;53.330;-6.288;2022-11-20T10:23:31;100238.69;;;20.22
74750;BMP280;63269;53.330;-6.288;2022-11-20T10:26:04;100226.84;;;20.13
74750;BMP280;63269;53.330;-6.288;2022-11-20T10:31:37;100232.16;;;20.13
74750;BMP280;63269;53.330;-6.288;2022-11-20T10:34:11;100244.28;;;20.14
74750;BMP280;63269;53.330;-6.288;2022-11-20T10:36:44;100244.28;;;20.14
74750;BMP280;63269;53.330;-6.288;2022-11-20T10:41:49;100244.00;;;20.12
74750;BMP280;63269;53.330;-6.288;2022-11-20T10:44:36;100271.81;;;20.11
74750;BMP280;63269;53.330;-6.288;2022-11-20T10:47:20;100278.28;;;20.10
74750;BMP280;63269;53.330;-6.288;2022-11-20T10:49:51;100278.28;;;20.10
74750;BMP280;63269;53.330;-6.288;2022-11-20T10:58:10;100278.13;;;20.05
74750;BMP280;63269;53.330;-6.288;2022-11-20T11:00:37;100283.47;;;20.05
74750;BMP280;63269;53.330;-6.288;2022-11-20T11:03:02;100289.66;;;20.02
74750;BMP280;63269;53.330;-6.288;2022-11-20T11:05:51;100291.56;;;20.01
74750;BMP280;63269;53.330;-6.288;2022-11-20T11:08:19;100303.41;;;20.00
74750;BMP280;63269;53.330;-6.288;2022-11-20T11:10:59;100311.41;;;20.00
74750;BMP280;63269;53.330;-6.288;2022-11-20T11:13:30;100312.13;;;20.01
74750;BMP280;63269;53.330;-6.288;2022-11-20T11:15:56;100312.13;;;20.01
74750;BMP280;63269;53.330;-6.288;2022-11-20T11:18:26;100318.19;;;20.01
74750;BMP280;63269;53.330;-6.288;2022-11-20T11:20:53;100318.50;;;20.03
74750;BMP280;63269;53.330;-6.288;2022-11-20T11:23:34;100318.50;;;20.03
74750;BMP280;63269;53.330;-6.288;2022-11-20T11:26:03;100328.25;;;20.06
74750;BMP280;63269;53.330;-6.288;2022-11-20T11:28:29;100319.84;;;20.08
74750;BMP280;63269;53.330;-6.288;2022-11-20T11:30:54;100319.41;;;20.09
74750;BMP280;63269;53.330;-6.288;2022-11-20T11:33:24;100310.56;;;20.12
74750;BMP280;63269;53.330;-6.288;2022-11-20T11:38:36;100312.03;;;20.13
74750;BMP280;63269;53.330;-6.288;2022-11-20T11:41:03;100305.44;;;20.18
74750;BMP280;63269;53.330;-6.288;2022-11-20T11:43:32;100305.44;;;20.18
74750;BMP280;63269;53.330;-6.288;2022-11-20T11:46:23;100304.97;;;20.20
74750;BMP280;63269;53.330;-6.288;2022-11-20T11:53:58;100320.25;;;20.28
74750;BMP280;63269;53.330;-6.288;2022-11-20T11:56:26;100318.66;;;20.31
74750;BMP280;63269;53.330;-6.288;2022-11-20T11:58:57;100328.84;;;20.32
74750;BMP280;63269;53.330;-6.288;2022-11-20T12:03:59;100318.91;;;20.33
74750;BMP280;63269;53.330;-6.288;2022-11-20T12:06:27;100327.97;;;20.35
74750;BMP280;63269;53.330;-6.288;2022-11-20T12:09:08;100324.44;;;20.38
74750;BMP280;63269;53.330;-6.288;2022-11-20T12:14:21;100327.69;;;20.43
74750;BMP280;63269;53.330;-6.288;2022-11-20T12:16:51;100320.44;;;20.43
74750;BMP280;63269;53.330;-6.288;2022-11-20T12:19:18;100335.97;;;20.45
74750;BMP280;63269;53.330;-6.288;2022-11-20T12:22:09;100329.03;;;20.47
74750;BMP280;63269;53.330;-6.288;2022-11-20T12:24:39;100330.97;;;20.47
74750;BMP280;63269;53.330;-6.288;2022-11-20T12:30:18;100319.88;;;20.48
74750;BMP280;63269;53.330;-6.288;2022-11-20T12:33:13;100329.66;;;20.51
74750;BMP280;63269;53.330;-6.288;2022-11-20T12:55:59;100335.88;;;20.57
74750;BMP280;63269;53.330;-6.288;2022-11-20T12:58:48;100338.13;;;20.59
74750;BMP280;63269;53.330;-6.288;2022-11-20T13:04:08;100324.38;;;20.61
74750;BMP280;63269;53.330;-6.288;2022-11-20T13:06:39;100334.56;;;20.62
74750;BMP280;63269;53.330;-6.288;2022-11-20T13:09:11;100334.56;;;20.62
74750;BMP280;63269;53.330;-6.288;2022-11-20T13:12:04;100333.09;;;20.61
74750;BMP280;63269;53.330;-6.288;2022-11-20T13:14:46;100341.81;;;20.62
74750;BMP280;63269;53.330;-6.288;2022-11-20T13:20:05;100346.97;;;20.56
74750;BMP280;63269;53.330;-6.288;2022-11-20T13:22:44;100351.56;;;20.55
74750;BMP280;63269;53.330;-6.288;2022-11-20T13:25:32;100352.47;;;20.52
74750;BMP280;63269;53.330;-6.288;2022-11-20T13:28:27;100348.72;;;20.50
74750;BMP280;63269;53.330;-6.288;2022-11-20T13:30:55;100356.44;;;20.48
74750;BMP280;63269;53.330;-6.288;2022-11-20T13:33:32;100355.69;;;20.47
74750;BMP280;63269;53.330;-6.288;2022-11-20T13:38:28;100347.66;;;20.38
74750;BMP280;63269;53.330;-6.288;2022-11-20T13:40:59;100342.34;;;20.38
74750;BMP280;63269;53.330;-6.288;2022-11-20T13:43:47;100344.66;;;20.36
74750;BMP280;63269;53.330;-6.288;2022-11-20T13:46:12;100355.31;;;20.36
74750;BMP280;63269;53.330;-6.288;2022-11-20T13:48:41;100358.75;;;20.36
74750;BMP280;63269;53.330;-6.288;2022-11-20T13:51:23;100363.78;;;20.34
74750;BMP280;63269;53.330;-6.288;2022-11-20T13:54:06;100371.47;;;20.32
74750;BMP280;63269;53.330;-6.288;2022-11-20T13:56:51;100355.16;;;20.30
74750;BMP280;63269;53.330;-6.288;2022-11-20T14:02:10;100368.63;;;20.27
74750;BMP280;63269;53.330;-6.288;2022-11-20T14:04:43;100367.88;;;20.26
74750;BMP280;63269;53.330;-6.288;2022-11-20T14:07:10;100355.00;;;20.25
74750;BMP280;63269;53.330;-6.288;2022-11-20T14:09:36;100355.00;;;20.25
74750;BMP280;63269;53.330;-6.288;2022-11-20T14:12:03;100383.53;;;20.24
74750;BMP280;63269;53.330;-6.288;2022-11-20T14:14:30;100364.63;;;20.22
74750;BMP280;63269;53.330;-6.288;2022-11-20T14:17:07;100369.94;;;20.22
74750;BMP280;63269;53.330;-6.288;2022-11-20T14:19:33;100378.34;;;20.21
74750;BMP280;63269;53.330;-6.288;2022-11-20T14:22:22;100372.28;;;20.20
74750;BMP280;63269;53.330;-6.288;2022-11-20T14:25:01;100379.66;;;20.16
74750;BMP280;63269;53.330;-6.288;2022-11-20T14:27:27;100384.25;;;20.15
74750;BMP280;63269;53.330;-6.288;2022-11-20T14:29:52;100377.41;;;20.14
74750;BMP280;63269;53.330;-6.288;2022-11-20T14:32:20;100401.38;;;20.14
74750;BMP280;63269;53.330;-6.288;2022-11-20T14:34:48;100385.88;;;20.13
74750;BMP280;63269;53.330;-6.288;2022-11-20T14:37:24;100386.59;;;20.13
74750;BMP280;63269;53.330;-6.288;2022-11-20T14:39:53;100388.94;;;20.11
74750;BMP280;63269;53.330;-6.288;2022-11-20T14:42:20;100392.03;;;20.10
74750;BMP280;63269;53.330;-6.288;2022-11-20T14:44:47;100402.69;;;20.10
74750;BMP280;63269;53.330;-6.288;2022-11-20T14:47:18;100374.91;;;20.11
74750;BMP280;63269;53.330;-6.288;2022-11-20T14:49:44;100371.47;;;20.10
74750;BMP280;63269;53.330;-6.288;2022-11-20T14:52:21;100379.03;;;20.12
74750;BMP280;63269;53.330;-6.288;2022-11-20T14:54:52;100378.63;;;20.13
74750;BMP280;63269;53.330;-6.288;2022-11-20T14:57:26;100370.16;;;20.15
74750;BMP280;63269;53.330;-6.288;2022-11-20T15:00:05;100380.00;;;20.18
74750;BMP280;63269;53.330;-6.288;2022-11-20T15:02:31;100387.97;;;20.18
74750;BMP280;63269;53.330;-6.288;2022-11-20T15:04:58;100394.66;;;20.23
74750;BMP280;63269;53.330;-6.288;2022-11-20T15:07:26;100397.59;;;20.25
74750;BMP280;63269;53.330;-6.288;2022-11-20T15:10:28;100394.50;;;20.26
74750;BMP280;63269;53.330;-6.288;2022-11-20T15:15:44;100401.94;;;20.31
74750;BMP280;63269;53.330;-6.288;2022-11-20T15:18:12;100401.94;;;20.31